Terminal Aerodrome Forecast
Issued by NWS Paducah, KY

Home | Current Version | Previous Version | Text Only | Print | Product List | Glossary On
Versions: 1 2 3 4 5 6 7 8 9 10 11 12 13 14 15 16 17
132
FTUS43 KPAH 212324
TAFEVV
TAF
KEVV 212324Z 2200/2224 17006KT P6SM OVC016
      TEMPO 2200/2202 BKN025
     FM220200 16007KT P6SM OVC045 WS020/19040KT
     FM221200 16013G21KT 6SM SHRA OVC015
     FM221900 19017G27KT P6SM SCT080=

USA.gov is the U.S. government's official web portal to all federal, state and local government web resources and services.